CST,Max TemperatureF,Mean TemperatureF,Min TemperatureF,Max Dew PointF,MeanDew PointF,Min DewpointF,Max Humidity, Mean Humidity, Min Humidity, Max Sea Level PressureIn, Mean Sea Level PressureIn, Min Sea Level PressureIn, Max VisibilityMiles, Mean VisibilityMiles, Min VisibilityMiles, Max Wind SpeedMPH, Mean Wind SpeedMPH, Max Gust SpeedMPH,PrecipitationIn, CloudCover, Events, WindDirDegrees
2013-1-1,26,15,3,16,7,-4,92,80,67,30.32,30.22,30.14,10,5,0,13,5,14,T,1,Fog,281
2013-1-2,35,19,3,24,18,0,92,77,61,30.37,30.21,30.05,10,10,5,21,10,25,T,7,Snow,314
2013-1-3,28,17,5,17,12,1,92,75,57,30.47,30.39,30.31,10,10,10,16,7,18,T,3,,289
2013-1-4,37,20,3,19,8,0,92,68,44,30.34,30.25,30.14,10,10,10,10,5,12,0.00,0,,292
2013-1-5,42,24,5,25,14,4,91,71,51,30.37,30.22,30.02,10,10,10,23,9,29,0.00,0,,302
2013-1-6,40,23,5,25,15,4,92,71,50,30.41,30.25,30.00,10,10,10,17,6,20,0.00,0,,221
2013-1-7,45,28,11,23,17,10,92,66,40,30.09,30.02,29.95,10,10,10,17,4,20,0.00,0,,312
2013-1-8,50,30,9,29,19,7,92,69,46,30.27,30.01,29.81,10,10,10,15,5,18,0.00,0,,295
2013-1-9,52,32,12,28,23,10,96,67,38,30.45,30.32,30.23,10,10,10,16,6,22,0.00,0,,215
2013-1-10,39,36,32,34,31,23,100,82,64,30.21,29.79,29.55,10,6,1,15,8,20,0.00,7,,167
2013-1-11,38,26,13,34,25,6,100,84,67,29.93,29.53,29.35,10,4,0,28,12,35,0.03,8,Fog-Rain-Snow,333
2013-1-12,18,8,-3,5,1,-8,86,71,56,30.30,30.15,29.89,10,10,10,23,11,28,0.00,1,,314
2013-1-13,20,6,-8,5,-3,-12,87,69,51,30.42,30.34,30.14,10,10,10,15,7,21,0.00,1,,312
2013-1-14,22,7,-8,14,4,-10,91,74,57,30.52,30.39,30.21,10,9,2,13,4,15,T,6,Snow,254
2013-1-15,29,12,-6,20,6,-8,96,71,46,30.34,30.22,30.08,10,9,2,17,6,22,T,2,,265
2013-1-16,51,36,21,26,23,18,88,62,36,30.36,30.17,29.99,10,10,10,29,13,36,0.00,2,,291
2013-1-17,51,32,13,23,19,12,96,64,31,30.54,30.41,30.23,10,10,10,13,5,16,0.00,0,,264
2013-1-18,59,37,14,21,18,14,92,57,21,30.22,30.08,29.99,10,10,9,18,7,22,0.00,0,,290
2013-1-19,57,38,18,25,19,15,81,52,22,30.32,30.17,29.98,10,10,10,23,9,29,0.00,0,,313
2013-1-20,39,26,13,25,17,9,96,76,55,30.47,30.34,30.18,10,10,9,26,7,33,0.00,4,,29
2013-1-21,28,17,6,14,11,4,88,69,50,30.43,30.33,30.15,10,10,10,13,5,15,0.00,5,,110
2013-1-22,42,29,16,21,15,12,88,66,43,30.28,30.21,30.10,10,10,7,13,6,16,0.00,5,,174
2013-1-23,39,24,9,20,13,6,91,68,44,30.44,30.30,30.19,10,10,9,17,6,21,0.00,0,,50
2013-1-24,27,16,5,17,10,1,88,75,61,30.43,30.27,30.10,10,10,7,20,8,24,0.00,0,,156
2013-1-25,57,36,14,26,20,13,92,60,28,30.30,30.21,30.13,10,10,8,15,5,18,0.00,0,,262
2013-1-26,53,37,20,31,25,17,88,62,35,30.12,29.98,29.85,10,10,10,16,5,21,0.00,1,,174
2013-1-27,53,40,27,42,35,25,100,81,62,29.83,29.74,29.68,10,4,0,12,4,14,0.18,5,Fog-Rain,199
2013-1-28,42,33,24,40,31,22,100,89,78,29.81,29.71,29.59,10,3,0,22,7,29,0.01,8,Fog-Rain,55
2013-1-29,35,31,26,28,25,20,92,81,69,29.90,29.77,29.66,10,8,1,22,11,30,0.02,7,Snow,321
2013-1-30,33,23,12,21,13,6,81,62,43,30.02,29.94,29.82,10,10,9,30,12,38,T,4,,315
2013-1-31,22,17,12,16,7,0,84,66,47,30.39,30.19,29.92,10,10,8,25,9,32,T,8,,341